This is the latest recevied weather packets stored in our database for station/object DH1FR-13. If no packets are shown the sender has not sent any weather packets the latest 10 day(s).
| Time | Temp. | Humidity | Pressure | Rain* | Wind** | Luminosity | Snow |
|---|---|---|---|---|---|---|---|
| 1788012601 | 23.33° C | 60% | 1016.3 hPa | 0 mm | 0 m/s | - | - |
| 1788012001 | 22.78° C | 60% | 1016.8 hPa | 0 mm | 0 m/s | - | - |
| 1788011400 | 22.78° C | 60% | 1016.7 hPa | 0 mm | 0 m/s | - | - |
| 1788010801 | 23.33° C | 58% | 1016.6 hPa | 0 mm | 0 m/s | - | - |
| 1788010202 | 23.89° C | 57% | 1016.5 hPa | 0 mm | 0 m/s | - | - |
| 1788009601 | 23.89° C | 56% | 1016.3 hPa | 0 mm | 0 m/s | - | - |
| 1788009000 | 23.89° C | 55% | 1016.4 hPa | 0 mm | 0 m/s | - | - |
| 1788008401 | 24.44° C | 58% | 1016.4 hPa | 0 mm | 0 m/s | - | - |
| 1788007800 | 23.33° C | 58% | 1016.3 hPa | 0 mm | 0 m/s | - | - |
| 1788007200 | 23.89° C | 59% | 1016.6 hPa | 0 mm | 0 m/s | - | - |
| 1788006601 | 23.89° C | 61% | 1016.6 hPa | 0 mm | 0 m/s | - | - |
| 1788006000 | 23.33° C | 62% | 1016.8 hPa | 0 mm | 0 m/s | - | - |
| 1788005401 | 21.67° C | 70% | 1016.7 hPa | 0 mm | 0 m/s | - | - |
| 1788004801 | 21.67° C | 69% | 1016.8 hPa | 0 mm | 0 m/s | - | - |
| 1788004201 | 22.22° C | 68% | 1016.9 hPa | 0 mm | 0 m/s | - | - |
| 1788003601 | 22.78° C | 67% | 1016.8 hPa | 0 mm | 0 m/s | - | - |
| 1788003001 | 21.67° C | 69% | 1016.8 hPa | 0 mm | 0 m/s | - | - |
| 1788002401 | 22.22° C | 67% | 1017.4 hPa | 0 mm | 0 m/s | - | - |
| 1788001801 | 22.78° C | 65% | 1017.3 hPa | 0 mm | 0 m/s | - | - |
| 1788001200 | 22.78° C | 69% | 1017.4 hPa | 0 mm | 0 m/s | - | - |
| 1788000600 | 21.67° C | 71% | 1017.6 hPa | 0 mm | 0 m/s | - | - |
| 1788000000 | 22.22° C | 69% | 1017.4 hPa | 0 mm | 0 m/s | - | - |
| 1787999400 | 21.11° C | 71% | 1017.6 hPa | 0 mm | 0 m/s | - | - |
| 1787998802 | 21.67° C | 73% | 1017.7 hPa | 0 mm | 0 m/s | - | - |
| 1787998201 | 20.56° C | 77% | 1017.7 hPa | 0 mm | 0 m/s | - | - |
* Rain latest hour (hover to see other rain measurements)
** Current wind speed in m/s (hover to see current wind gust speed)